Estación municipal de Cercs - St.Jordi (Berguedà, )

Consulta los datos en tiempo real de la estación municipal de Cercs - St.Jordi





Hora UTC 17:50
Temperatura 26.7 ºC
Humedad 49.8 %
Presión 1021.9 hPa
Pluja 0.0 mm
Velocidad viento 2.9 km/h
Dirección viento SSE
Radiación solar 17.8 W/m²

Datos diarios 2026-09-02



Hora UTC (invierno +1h; verano +2h)
Temperatura (ºC) Humedad (%) Presión (hPa) Velocidad viento (km/h) Precipitación (mm) Radiación solar (W/m²)
Hora UTC Aire Humedad Presión Vel. Dir. Vel. Max Dir. Intent. máx 5 min. Rad. Sol.
00:05 19.7 77.6 1022.0 2.1 NNW 2.1 NW 0.0 0.1
00:10 19.7 78.6 1022.0 3.6 NNW 8.8 NW 0.0 0.1
00:15 19.7 78.3 1022.0 1.2 N 8.8 NE 0.0 0.1
00:20 19.3 78.9 1022.1 3.5 WNW 8.8 NW 0.0 0.1
00:25 19.5 79.0 1022.1 2.5 WNW 8.8 WNW 0.0 0.1
00:30 19.5 78.3 1022.1 1.9 W 6.1 WSW 0.0 0.1
00:35 19.4 77.9 1022.1 0.0 NNE 0.0 SW 0.0 0.1
00:40 19.4 77.8 1022.1 0.8 SW 6.1 WSW 0.0 0.1
00:45 19.3 77.8 1022.0 0.4 SSW 6.1 SSW 0.0 0.1
00:50 19.3 77.7 1022.0 0.5 NNE 6.1 NNE 0.0 0.1
00:55 19.3 78.3 1022.0 0.0 SW 3.4 SW 0.0 0.1
01:00 19.0 78.8 1021.9 0.2 WSW 3.4 WSW 0.0 0.1
01:05 19.1 78.9 1022.0 0.0 NNE 0.0 SW 0.0 0.1
01:10 19.1 79.2 1022.0 0.1 NNE 3.4 NNE 0.0 0.1
01:15 19.1 79.4 1022.0 0.4 ESE 6.1 ENE 0.0 0.1
01:20 19.0 79.3 1022.0 0.7 NNW 6.1 WNW 0.0 0.1
01:25 18.9 79.6 1021.9 0.1 S 3.4 S 0.0 0.1
01:30 18.9 79.6 1021.9 0.0 NNE 0.0 S 0.0 0.1
01:35 19.0 79.5 1021.8 1.6 NNW 8.8 WNW 0.0 0.1
01:40 19.1 79.0 1021.8 0.3 NNW 3.4 NNW 0.0 0.1
01:45 19.0 79.5 1021.8 1.1 NNE 6.1 ENE 0.0 0.1
01:50 19.2 79.2 1021.9 1.7 NNW 6.1 NNE 0.0 0.1
01:55 19.1 79.4 1021.9 1.5 NE 6.1 NE 0.0 0.1
02:00 19.2 79.6 1021.8 2.6 E 6.1 NNE 0.0 0.1
02:05 19.2 79.7 1021.8 2.2 ENE 6.1 E 0.0 0.1
02:10 19.1 79.3 1021.8 2.5 NNE 8.8 ENE 0.0 0.1
02:15 19.1 78.5 1021.8 0.1 E 3.4 E 0.0 0.1
02:20 18.9 79.9 1021.9 1.3 SE 6.1 S 0.0 0.1
02:25 18.8 79.4 1021.9 3.1 NNE 8.8 NNE 0.0 0.1
02:30 18.8 79.6 1021.9 1.3 NW 6.1 WNW 0.0 0.1
02:35 18.6 80.8 1021.9 1.7 W 8.8 NNW 0.0 0.1
02:40 18.7 80.8 1021.8 4.7 NW 11.5 NNW 0.0 0.1
02:45 18.9 79.4 1021.8 2.0 NW 11.5 WNW 0.0 0.1
02:50 18.7 80.6 1021.7 0.4 SSW 3.4 S 0.0 0.1
02:55 18.6 81.8 1021.7 0.0 NNE 0.0 S 0.0 0.1
03:00 18.6 81.5 1021.7 2.1 NE 8.8 NE 0.0 0.2
03:05 18.6 80.7 1021.8 3.1 NE 8.8 NNW 0.0 0.1
03:10 18.7 79.9 1021.8 3.8 NW 8.8 W 0.0 0.1
03:15 18.7 80.9 1021.8 3.0 W 6.1 WNW 0.0 0.2
03:20 18.6 81.0 1021.8 1.3 NW 6.1 NW 0.0 0.1
03:25 18.5 81.8 1021.8 0.0 NNE 0.0 NNW 0.0 0.2
03:30 18.4 82.2 1021.8 0.0 NNE 0.0 W 0.0 0.2
03:35 18.4 82.3 1021.8 0.0 NNE 0.0 S 0.0 0.2
03:40 18.3 82.3 1021.8 1.8 NE 8.8 NE 0.0 0.2
03:45 18.4 81.5 1021.7 0.7 NE 6.1 NNE 0.0 0.2
03:50 18.4 82.0 1021.7 1.2 N 6.1 NE 0.0 0.2
03:55 18.3 82.2 1021.7 0.0 NNE 0.0 NE 0.0 0.1
04:00 18.2 82.4 1021.7 0.0 NNE 0.0 NE 0.0 0.2
04:05 18.0 83.4 1021.7 0.0 NNE 0.0 E 0.0 0.1
04:10 17.9 84.0 1021.7 0.5 ENE 6.1 ENE 0.0 0.2
04:15 17.9 83.8 1021.7 1.1 NE 6.1 W 0.0 0.2
04:20 17.9 83.9 1021.7 2.0 W 6.1 NW 0.0 0.2
04:25 17.9 84.0 1021.7 1.0 SSW 6.1 SSW 0.0 0.2
04:30 17.9 84.0 1021.6 0.0 NNE 0.0 SSW 0.0 0.2
04:35 17.8 83.7 1021.6 1.4 NNE 6.1 NNW 0.0 0.1
04:40 17.8 83.9 1021.6 0.0 NNE 0.0 WNW 0.0 0.1
04:45 17.7 84.7 1021.6 1.1 N 6.1 ENE 0.0 0.1
04:50 17.9 83.7 1021.6 2.1 N 8.8 NW 0.0 0.2
04:55 18.1 82.1 1021.7 4.8 NW 14.2 NNW 0.0 0.3
05:00 18.2 82.0 1021.7 2.7 NW 8.8 NNW 0.0 0.6
05:05 18.1 82.5 1021.7 2.0 NW 8.8 N 0.0 1.2
05:10 18.1 82.3 1021.8 1.6 N 8.8 NE 0.0 1.9
05:15 18.2 81.5 1021.8 3.5 NNE 8.8 NNE 0.0 3.1
05:20 18.2 81.4 1021.8 0.1 NW 3.4 NE 0.0 5.2
05:25 17.9 82.7 1021.8 0.0 NNE 0.0 NW 0.0 6.8
05:30 17.8 83.3 1021.8 0.0 NNE 0.0 NNE 0.0 8.6
05:35 17.6 84.2 1021.9 0.0 NNE 0.0 S 0.0 10.5
05:40 17.6 84.7 1021.9 0.0 NNE 0.0 S 0.0 12.1
05:45 17.6 84.5 1022.0 0.1 ENE 6.1 ENE 0.0 13.8
05:50 17.7 83.9 1022.1 0.3 NNE 6.1 NE 0.0 15.6
05:55 17.8 83.4 1022.1 0.9 N 6.1 NNE 0.0 18.4
06:00 18.0 82.8 1022.2 3.9 NW 8.8 NNE 0.0 20.9
06:05 18.2 81.5 1022.2 4.9 N 8.8 NE 0.0 22.6
06:10 18.5 80.2 1022.2 3.0 NNE 8.8 E 0.0 23.9
06:15 18.7 79.2 1022.3 3.0 NNE 11.5 NNW 0.0 25.4
06:20 18.8 79.4 1022.3 3.1 NNW 11.5 NW 0.0 26.9
06:25 18.9 79.2 1022.3 1.1 NNE 6.1 ENE 0.0 28.9
06:30 19.0 78.8 1022.3 1.1 WSW 6.1 W 0.0 29.3
06:35 19.2 78.4 1022.4 0.0 NNE 0.0 W 0.0 30.3
06:40 19.2 78.6 1022.4 0.0 NNE 0.0 WNW 0.0 31.6
06:45 19.4 78.1 1022.5 0.7 N 6.1 NNW 0.0 32.9
06:50 19.5 78.0 1022.5 0.4 SW 3.4 WNW 0.0 33.7
06:55 19.5 78.2 1022.5 0.2 SW 3.4 SW 0.0 34.5
07:00 19.6 77.9 1022.5 1.6 NE 8.8 ENE 0.0 35.0
07:05 19.8 76.0 1022.5 5.0 NNE 11.5 ENE 0.0 36.2
07:10 19.9 75.7 1022.5 4.1 NNE 8.8 NE 0.0 36.8
07:15 20.2 75.1 1022.5 0.7 ENE 6.1 NNE 0.0 38.1
07:20 20.5 74.0 1022.5 4.2 NE 11.5 ENE 0.0 39.6
07:25 20.7 74.1 1022.5 0.7 NE 6.1 ENE 0.0 41.0
07:30 20.8 74.7 1022.5 0.0 NNE 0.0 S 0.0 41.7
07:35 20.9 73.9 1022.5 0.0 NNE 0.0 SSW 0.0 43.3
07:40 21.1 73.1 1022.5 1.3 ENE 11.5 NE 0.0 42.9
07:45 21.4 70.9 1022.5 5.2 NNE 11.5 NE 0.0 43.0
07:50 21.8 69.5 1022.6 3.4 NNE 8.8 NW 0.0 43.4
07:55 21.9 69.9 1022.6 0.6 NNE 11.5 NNW 0.0 44.5
08:00 22.2 70.7 1022.7 0.0 NNE 0.0 WSW 0.0 45.2
08:05 22.2 70.3 1022.7 0.0 NNE 0.0 ESE 0.0 46.6
08:10 22.5 69.5 1022.8 0.0 NNE 0.0 NE 0.0 61.0
08:15 22.7 67.6 1022.8 0.0 NNE 0.0 E 0.0 80.0
08:20 22.9 67.2 1022.8 0.0 NNE 0.0 ENE 0.0 212.0
08:25 23.1 66.3 1022.8 0.0 NNE 0.0 N 0.0 206.9
08:30 23.4 64.7 1022.8 0.0 NNE 0.0 N 0.0 295.7
08:35 23.8 63.4 1022.8 0.0 NNE 0.0 ENE 0.0 454.1
08:40 24.0 61.3 1022.8 0.0 NNE 0.0 NE 0.0 488.4
08:45 24.6 59.6 1022.8 0.0 NNE 0.0 NE 0.0 495.6
08:50 24.8 58.2 1022.9 0.0 NNE 0.0 ENE 0.0 512.4
08:55 25.3 56.8 1023.0 0.0 NNE 0.0 NE 0.0 526.8
09:00 25.6 55.7 1023.0 0.0 NNE 0.0 ENE 0.0 504.5
09:05 26.0 52.0 1023.0 1.5 E 8.8 E 0.0 543.6
09:10 26.2 51.3 1023.0 2.1 ESE 6.1 E 0.0 557.0
09:15 26.6 49.6 1023.0 2.1 E 8.8 SSE 0.0 570.0
09:20 27.1 47.3 1023.0 3.7 E 8.8 E 0.0 576.7
09:25 27.2 46.5 1023.0 3.0 E 8.8 E 0.0 586.9
09:30 27.3 47.5 1023.0 2.7 ESE 6.1 ENE 0.0 596.6
09:35 27.9 47.2 1023.0 3.4 SE 8.8 SSE 0.0 612.8
09:40 28.4 46.1 1023.0 4.9 SE 8.8 SSE 0.0 606.8
09:45 28.8 45.1 1023.0 2.7 SSE 8.8 SSE 0.0 618.2
09:50 28.9 45.1 1023.0 6.6 SSE 11.5 SE 0.0 630.0
09:55 28.9 45.3 1022.9 5.4 SSE 11.5 SE 0.0 641.5
10:00 29.2 44.0 1022.9 3.6 SE 11.5 SSE 0.0 635.4
10:05 29.1 44.1 1022.9 6.7 SE 11.5 SE 0.0 632.3
10:10 29.3 43.6 1022.9 4.4 SE 11.5 SE 0.0 652.5
10:15 29.8 43.5 1022.9 5.2 SSE 11.5 SE 0.0 651.9
10:20 29.8 43.0 1022.8 6.2 SE 14.2 SE 0.0 669.2
10:25 29.9 42.6 1022.9 5.7 S 11.5 SE 0.0 680.8
10:30 29.7 42.6 1022.8 7.0 SSE 14.2 SE 0.0 686.3
10:35 30.0 41.9 1022.8 6.3 SSE 14.2 S 0.0 691.0
10:40 30.3 40.8 1022.7 4.8 SE 14.2 SE 0.0 697.2
10:45 30.7 38.7 1022.7 6.0 SE 14.2 ESE 0.0 702.6
10:50 30.8 38.3 1022.7 5.7 ESE 11.5 SSE 0.0 707.2
10:55 30.7 39.3 1022.6 6.9 SSE 16.9 SSW 0.0 710.0
11:00 30.7 38.2 1022.6 4.7 SE 14.2 ESE 0.0 714.7
11:05 30.7 38.1 1022.5 4.0 ESE 11.5 ENE 0.0 718.6
11:10 30.4 38.2 1022.5 4.2 E 11.5 E 0.0 718.9
11:15 30.9 37.9 1022.5 4.7 ESE 14.2 ESE 0.0 725.2
11:20 30.8 38.6 1022.4 6.7 SE 16.9 ESE 0.0 725.1
11:25 31.2 38.7 1022.4 4.6 SE 8.8 SE 0.0 725.2
11:30 31.5 38.1 1022.3 5.3 SE 16.9 SSE 0.0 725.4
11:35 31.4 38.2 1022.2 4.1 ESE 14.2 S 0.0 726.5
11:40 31.6 38.4 1022.3 5.9 ESE 14.2 ESE 0.0 725.7
11:45 31.7 38.6 1022.2 6.2 SE 14.2 SSW 0.0 722.2
11:50 31.8 38.3 1022.2 6.8 ESE 19.6 ESE 0.0 727.3
11:55 31.8 38.7 1022.1 7.5 SE 16.9 ESE 0.0 726.7
12:00 32.0 38.6 1022.0 8.6 SE 19.6 SSE 0.0 728.3
12:05 31.9 39.1 1022.0 9.0 SE 16.9 E 0.0 726.7
12:10 32.2 38.0 1022.0 6.6 ESE 14.2 E 0.0 725.4
12:15 32.5 37.8 1021.9 7.9 SE 19.6 SE 0.0 725.8
12:20 32.5 38.3 1021.9 9.3 SE 22.3 S 0.0 726.3
12:25 32.6 37.7 1021.9 8.4 SE 16.9 S 0.0 724.1
12:30 32.3 37.4 1021.9 7.3 SSE 14.2 SSE 0.0 719.9
12:35 32.5 37.7 1021.9 7.8 SE 22.3 SSE 0.0 719.0
12:40 32.7 36.6 1021.8 7.4 SE 22.3 ESE 0.0 716.7
12:45 32.9 35.8 1021.8 7.1 SE 16.9 SSW 0.0 717.9
12:50 32.9 34.9 1021.7 6.5 SE 16.9 ESE 0.0 714.7
12:55 33.0 34.9 1021.7 8.7 SE 19.6 SE 0.0 712.0
13:00 33.3 34.6 1021.8 8.9 SE 19.6 SE 0.0 711.0
13:05 32.9 35.3 1021.7 5.5 SE 14.2 SSE 0.0 705.1
13:10 33.0 35.1 1021.7 6.6 SE 16.9 SSE 0.0 623.9
13:15 32.5 35.9 1021.8 11.3 SSE 25.0 ESE 0.0 645.1
13:20 32.5 35.7 1021.7 8.1 SE 25.0 SE 0.0 685.5
13:25 32.6 35.5 1021.7 7.7 SE 16.9 SE 0.0 683.8
13:30 32.8 35.4 1021.7 5.6 SE 16.9 S 0.0 672.7
13:35 33.1 35.7 1021.7 7.3 SSE 16.9 SSE 0.0 680.2
13:40 32.9 35.8 1021.7 7.3 SSE 16.9 SSE 0.0 618.6
13:45 33.0 35.3 1021.7 7.2 SE 19.6 SSE 0.0 490.5
13:50 32.2 36.4 1021.7 6.4 S 16.9 S 0.0 551.2
13:55 32.5 36.5 1021.6 3.9 SE 11.5 SSE 0.0 434.0
14:00 32.8 35.8 1021.6 8.1 ESE 19.6 ESE 0.0 397.0
14:05 32.3 36.7 1021.6 6.7 SE 19.6 E 0.0 375.0
14:10 32.1 36.8 1021.6 9.7 SE 22.3 SE 0.0 624.3
14:15 32.3 36.9 1021.6 5.2 SE 11.5 S 0.0 117.9
14:20 31.8 37.3 1021.6 6.4 SE 16.9 E 0.0 603.9
14:25 32.3 36.3 1021.5 7.5 SE 22.3 SE 0.0 597.3
14:30 32.4 35.4 1021.5 7.9 SE 22.3 SE 0.0 325.0
14:35 31.7 36.2 1021.5 9.1 SE 25.0 SE 0.0 413.9
14:40 31.4 36.8 1021.5 8.1 SSE 25.0 SE 0.0 206.0
14:45 31.3 36.9 1021.4 9.4 SE 30.4 ESE 0.0 463.8
14:50 31.4 36.2 1021.3 8.8 SE 22.3 NE 0.0 398.0
14:55 31.8 35.7 1021.4 6.7 SSE 14.2 E 0.0 500.9
15:00 32.2 35.5 1021.3 5.0 S 16.9 SSW 0.0 483.6
15:05 32.0 35.4 1021.3 7.6 S 14.2 SSW 0.0 472.8
15:10 31.8 36.0 1021.3 8.7 S 14.2 SW 0.0 463.3
15:15 31.9 35.9 1021.3 7.7 S 19.6 SSE 0.0 456.6
15:20 31.9 35.7 1021.4 7.1 S 14.2 SSE 0.0 436.5
15:25 32.0 35.6 1021.4 7.0 S 16.9 SSW 0.0 432.3
15:30 32.0 35.7 1021.3 8.0 S 16.9 SSW 0.0 419.6
15:35 31.8 35.8 1021.3 9.7 S 16.9 SE 0.0 384.7
15:40 31.6 36.2 1021.3 10.6 S 25.0 S 0.0 387.7
15:45 31.5 37.0 1021.3 5.2 SSW 14.2 SW 0.0 383.7
15:50 31.7 35.9 1021.3 6.8 S 14.2 SSE 0.0 371.7
15:55 31.7 36.8 1021.3 5.1 SSW 14.2 S 0.0 331.2
16:00 31.5 36.8 1021.2 4.9 SSE 14.2 SSE 0.0 311.0
16:05 31.5 37.0 1021.3 6.8 S 14.2 S 0.0 320.1
16:10 31.3 37.3 1021.3 4.2 SSE 11.5 SE 0.0 309.7
16:15 31.3 37.7 1021.3 6.6 SE 16.9 ESE 0.0 284.1
16:20 31.0 38.3 1021.3 8.3 SSE 16.9 SSW 0.0 289.1
16:25 30.9 38.5 1021.3 8.3 SE 19.6 SE 0.0 270.4
16:30 30.7 39.0 1021.3 6.5 SE 16.9 SE 0.0 251.1
16:35 30.4 39.9 1021.3 6.0 ESE 14.2 SSE 0.0 233.3
16:40 30.4 40.0 1021.4 6.8 SE 16.9 SE 0.0 197.5
16:45 30.3 40.3 1021.4 6.2 SE 14.2 S 0.0 53.5
16:50 30.1 40.5 1021.4 6.4 SE 14.2 SE 0.0 99.7
16:55 29.9 41.3 1021.4 6.2 SE 14.2 SE 0.0 171.6
17:00 29.4 42.2 1021.5 5.7 SE 14.2 SSE 0.0 121.2
17:05 29.0 43.0 1021.5 7.0 SE 19.6 SE 0.0 79.8
17:10 28.6 43.9 1021.5 4.8 SSE 16.9 SE 0.0 37.0
17:15 28.2 45.3 1021.5 5.4 S 19.6 S 0.0 34.6
17:20 27.7 48.2 1021.6 3.7 SSW 11.5 SSW 0.0 31.4
17:25 27.1 50.7 1021.6 3.6 SSW 11.5 SW 0.0 28.5
17:30 26.8 51.1 1021.7 3.0 SW 8.8 SSW 0.0 27.7
17:35 26.7 51.7 1021.7 4.3 S 14.2 S 0.0 26.5
17:40 26.8 49.5 1021.8 6.1 S 11.5 SSE 0.0 23.8
17:45 26.8 49.8 1021.9 2.9 SSW 11.5 S 0.0 20.7
17:50 26.7 49.8 1021.9 2.9 SSE 8.8 SSE 0.0 17.8
Máxima 33.3 84.7 1023.0 11.3 SSE 30.4 ESE 0.0 728.3
Mínima 17.6 34.6 1021.2
Total 0.0